Terminal Aerodrome Forecast
Issued by NWS Duluth, MN

Home | Current Version | Previous Version | Text Only | Print | Product List | Glossary On
Versions: 1 2 3 4 5 6 7 8 9 10 11 12 13 14 15 16 17 18 19 20 21 22 23 24 25 26 27 28 29 30 31 32 33
000
FTUS43 KDLH 251700
TAFDLH
TAF
KDLH 251736Z 2518/2618 08012KT 4SM -SN OVC015
      TEMPO 2518/2522 6SM -SN OVC025
     FM252200 12005KT P6SM BKN035
     FM260500 20006KT P6SM BKN015 BKN050
     FM260800 20008KT 3SM -SN BR BKN008 OVC035
     FM261200 18012KT P6SM VCSH OVC035=

USA.gov is the U.S. government's official web portal to all federal, state and local government web resources and services.